createdAt,value
2023-03-08T00:00:17.392Z,2.20
2023-03-08T00:01:17.375Z,2.22
2023-03-08T00:02:17.362Z,2.22
2023-03-08T00:03:17.379Z,2.17
2023-03-08T00:04:17.610Z,2.28
2023-03-08T00:05:17.304Z,2.20
2023-03-08T00:06:17.276Z,2.18
2023-03-08T00:07:17.282Z,2.26
2023-03-08T00:08:17.298Z,2.18
2023-03-08T00:09:17.254Z,2.18
2023-03-08T00:10:17.261Z,2.15
2023-03-08T00:11:17.220Z,2.24
2023-03-08T00:12:17.190Z,2.14
2023-03-08T00:13:17.189Z,2.15
2023-03-08T00:14:17.395Z,2.22
2023-03-08T00:15:17.142Z,2.13
2023-03-08T00:16:17.202Z,2.13
2023-03-08T00:17:17.121Z,2.00
2023-03-08T00:18:17.112Z,2.13
2023-03-08T00:19:17.089Z,2.06
2023-03-08T00:20:17.090Z,2.17
2023-03-08T00:21:17.062Z,2.20
2023-03-08T00:22:17.067Z,2.08
2023-03-08T00:23:17.031Z,2.15
2023-03-08T00:24:17.042Z,2.15
2023-03-08T00:25:17.392Z,2.14
2023-03-08T00:26:17.058Z,2.14
2023-03-08T00:27:16.977Z,2.18
2023-03-08T00:28:16.997Z,2.20
2023-03-08T00:29:17.006Z,2.14
2023-03-08T00:30:16.997Z,2.17
2023-03-08T00:31:17.103Z,2.24
2023-03-08T00:32:17.136Z,2.17
2023-03-08T00:33:16.885Z,2.24
2023-03-08T00:34:16.880Z,2.29
2023-03-08T00:35:16.911Z,2.31
2023-03-08T00:36:16.898Z,2.28
2023-03-08T00:37:16.843Z,2.20
2023-03-08T00:38:16.832Z,2.20
2023-03-08T00:39:16.856Z,2.28
2023-03-08T00:40:16.832Z,2.32
2023-03-08T00:41:16.793Z,2.25
2023-03-08T00:42:16.809Z,2.31
2023-03-08T00:43:16.975Z,2.32
2023-03-08T00:44:16.739Z,2.29
2023-03-08T00:45:16.942Z,2.33
2023-03-08T00:46:16.785Z,2.32
2023-03-08T00:47:16.705Z,2.28
2023-03-08T00:48:16.723Z,2.33
2023-03-08T00:49:16.717Z,2.32
2023-03-08T00:50:16.666Z,2.29
2023-03-08T00:51:16.704Z,2.28
2023-03-08T00:52:16.623Z,2.25
2023-03-08T00:53:16.634Z,2.35
2023-03-08T00:54:16.629Z,2.31
2023-03-08T00:55:16.610Z,2.33
2023-03-08T00:56:16.593Z,2.35
2023-03-08T00:57:16.597Z,2.32
2023-03-08T00:58:16.752Z,2.33
2023-03-08T00:59:16.592Z,2.44
2023-03-08T01:00:16.526Z,2.35
2023-03-08T01:01:16.613Z,2.36
2023-03-08T01:02:16.521Z,2.49
2023-03-08T01:03:16.475Z,2.43
2023-03-08T01:04:16.463Z,2.44
2023-03-08T01:05:16.490Z,2.42
2023-03-08T01:06:16.469Z,2.47
2023-03-08T01:07:16.462Z,2.47
2023-03-08T01:08:16.393Z,2.38
2023-03-08T01:09:16.386Z,2.42
2023-03-08T01:10:16.372Z,2.49
2023-03-08T01:11:16.367Z,2.44
2023-03-08T01:12:16.353Z,2.25
2023-03-08T01:13:16.343Z,2.26
2023-03-08T01:14:16.333Z,2.22
2023-03-08T01:15:16.294Z,2.20
2023-03-08T01:16:16.279Z,2.10
2023-03-08T01:17:16.265Z,2.18
2023-03-08T01:18:16.247Z,2.14
2023-03-08T01:19:16.507Z,2.17
2023-03-08T01:20:16.232Z,2.15
2023-03-08T01:21:16.204Z,2.20
2023-03-08T01:22:16.185Z,2.25
2023-03-08T01:23:16.188Z,2.28
2023-03-08T01:24:16.154Z,2.31
2023-03-08T01:25:16.138Z,2.25
2023-03-08T01:26:16.333Z,2.25
2023-03-08T01:27:16.144Z,2.32
2023-03-08T01:28:16.105Z,2.31
2023-03-08T01:29:16.084Z,2.17
2023-03-08T01:30:16.090Z,2.22
2023-03-08T01:31:16.073Z,2.26
2023-03-08T01:32:16.084Z,2.24
2023-03-08T01:33:16.033Z,2.15
2023-03-08T01:34:16.029Z,2.22
2023-03-08T01:35:16.005Z,2.14
2023-03-08T01:36:16.052Z,2.20
2023-03-08T01:37:15.991Z,2.13
2023-03-08T01:38:15.975Z,2.17
2023-03-08T01:39:15.963Z,2.18
2023-03-08T01:40:15.942Z,2.15
2023-03-08T01:41:15.939Z,2.20
2023-03-08T01:42:15.907Z,2.20
2023-03-08T01:43:15.890Z,2.14
2023-03-08T01:44:15.884Z,2.14
2023-03-08T01:45:15.856Z,2.17
2023-03-08T01:46:15.857Z,2.11
2023-03-08T01:47:15.842Z,2.08
2023-03-08T01:48:15.813Z,2.13
2023-03-08T01:49:15.829Z,2.11
2023-03-08T01:50:15.785Z,2.15
2023-03-08T01:51:15.765Z,2.10
2023-03-08T01:52:15.760Z,2.14
2023-03-08T01:53:15.739Z,2.14
2023-03-08T01:54:15.728Z,2.08
2023-03-08T01:55:15.711Z,2.17
2023-03-08T01:56:15.699Z,2.14
2023-03-08T01:57:15.878Z,2.15
2023-03-08T01:58:15.674Z,2.11
2023-03-08T01:59:15.666Z,2.13
2023-03-08T02:00:15.641Z,2.17
2023-03-08T02:01:15.691Z,2.17
2023-03-08T02:02:15.637Z,2.11
2023-03-08T02:03:15.597Z,2.15
2023-03-08T02:04:15.614Z,2.13
2023-03-08T02:05:15.564Z,2.11
2023-03-08T02:06:15.559Z,2.06
2023-03-08T02:07:15.537Z,2.04
2023-03-08T02:08:15.515Z,2.04
2023-03-08T02:09:15.521Z,2.11
2023-03-08T02:10:15.508Z,2.02
2023-03-08T02:11:15.497Z,2.10
2023-03-08T02:12:15.464Z,2.00
2023-03-08T02:13:15.658Z,1.97
2023-03-08T02:14:15.462Z,1.97
2023-03-08T02:15:15.424Z,1.94
2023-03-08T02:16:15.418Z,1.94
2023-03-08T02:17:15.399Z,1.94
2023-03-08T02:18:15.562Z,2.00
2023-03-08T02:19:15.406Z,1.99
2023-03-08T02:20:15.372Z,1.99
2023-03-08T02:21:15.336Z,2.08
2023-03-08T02:22:15.327Z,2.04
2023-03-08T02:23:15.341Z,2.08
2023-03-08T02:24:15.304Z,2.08
2023-03-08T02:25:15.305Z,2.11
2023-03-08T02:26:15.284Z,2.07
2023-03-08T02:27:15.252Z,2.06
2023-03-08T02:28:15.228Z,2.04
2023-03-08T02:29:15.245Z,2.11
2023-03-08T02:30:15.212Z,2.06
2023-03-08T02:31:15.209Z,2.04
2023-03-08T02:32:15.235Z,1.99
2023-03-08T02:33:15.178Z,2.10
2023-03-08T02:34:15.182Z,2.00
2023-03-08T02:35:15.159Z,2.00
2023-03-08T02:36:15.225Z,1.99
2023-03-08T02:37:15.132Z,1.97
2023-03-08T02:38:15.093Z,2.00
2023-03-08T02:39:15.090Z,1.94
2023-03-08T02:40:15.060Z,1.94
2023-03-08T02:41:15.078Z,1.89
2023-03-08T02:42:15.066Z,1.99
2023-03-08T02:43:15.051Z,1.91
2023-03-08T02:44:15.010Z,1.85
2023-03-08T02:45:14.992Z,1.84
2023-03-08T02:46:15.003Z,1.87
2023-03-08T02:47:14.961Z,1.88
2023-03-08T02:48:14.956Z,1.81
2023-03-08T02:49:14.929Z,1.85
2023-03-08T02:50:14.949Z,1.78
2023-03-08T02:51:14.911Z,1.81
2023-03-08T02:52:14.911Z,1.78
2023-03-08T02:53:14.920Z,1.81
2023-03-08T02:54:16.914Z,1.81
2023-03-08T02:55:14.883Z,1.81
2023-03-08T02:56:14.906Z,1.78
2023-03-08T02:57:14.900Z,1.81
2023-03-08T02:58:14.817Z,1.91
2023-03-08T02:59:14.845Z,1.91
2023-03-08T03:00:14.788Z,1.92
2023-03-08T03:01:14.881Z,1.95
2023-03-08T03:02:14.799Z,2.04
2023-03-08T03:03:14.736Z,2.02
2023-03-08T03:04:14.706Z,1.97
2023-03-08T03:05:14.762Z,2.07
2023-03-08T03:06:14.876Z,1.94
2023-03-08T03:07:14.682Z,1.92
2023-03-08T03:08:14.701Z,1.92
2023-03-08T03:09:14.635Z,1.94
2023-03-08T03:10:14.630Z,1.92
2023-03-08T03:11:14.614Z,1.92
2023-03-08T03:12:14.633Z,1.94
2023-03-08T03:13:14.561Z,1.97
2023-03-08T03:14:14.572Z,2.00
2023-03-08T03:15:14.552Z,2.00
2023-03-08T03:16:14.651Z,2.04
2023-03-08T03:17:14.575Z,2.04
2023-03-08T03:18:14.550Z,1.89
2023-03-08T03:19:14.481Z,1.91
2023-03-08T03:20:14.497Z,1.91
2023-03-08T03:21:14.495Z,1.91
2023-03-08T03:22:14.484Z,1.97
2023-03-08T03:23:14.429Z,1.88
2023-03-08T03:24:14.433Z,2.06
2023-03-08T03:25:14.491Z,2.04
2023-03-08T03:26:14.371Z,1.94
2023-03-08T03:27:14.368Z,2.00
2023-03-08T03:28:14.367Z,1.97
2023-03-08T03:29:14.362Z,2.10
2023-03-08T03:30:14.344Z,2.08
2023-03-08T03:31:14.389Z,1.97
2023-03-08T03:32:14.467Z,2.06
2023-03-08T03:33:14.335Z,2.06
2023-03-08T03:34:14.271Z,2.08
2023-03-08T03:35:14.294Z,2.02
2023-03-08T03:36:14.286Z,2.02
2023-03-08T03:37:14.241Z,2.11
2023-03-08T03:38:14.259Z,2.06
2023-03-08T03:39:14.206Z,2.08
2023-03-08T03:40:14.224Z,1.99
2023-03-08T03:41:14.153Z,2.13
2023-03-08T03:42:14.131Z,2.08
2023-03-08T03:43:14.153Z,2.02
2023-03-08T03:44:14.107Z,1.99
2023-03-08T03:45:14.140Z,2.08
2023-03-08T03:46:14.124Z,2.08
2023-03-08T03:47:14.093Z,2.14
2023-03-08T03:48:14.073Z,2.17
2023-03-08T03:49:14.096Z,1.97
2023-03-08T03:50:14.045Z,2.00
2023-03-08T03:51:14.020Z,2.11
2023-03-08T03:52:14.034Z,2.00
2023-03-08T03:53:13.988Z,2.06
2023-03-08T03:54:14.009Z,2.02
2023-03-08T03:55:14.000Z,2.15
2023-03-08T03:56:13.974Z,2.02
2023-03-08T03:57:13.963Z,2.14
2023-03-08T03:58:13.932Z,1.97
2023-03-08T03:59:13.908Z,2.17
2023-03-08T04:00:13.889Z,2.08
2023-03-08T04:01:13.928Z,2.14
2023-03-08T04:02:13.896Z,2.14
2023-03-08T04:03:14.007Z,2.11
2023-03-08T04:04:13.860Z,2.11
2023-03-08T04:05:13.844Z,2.15
2023-03-08T04:06:13.821Z,2.06
2023-03-08T04:07:13.833Z,2.11
2023-03-08T04:08:13.885Z,1.99
2023-03-08T04:09:13.766Z,1.97
2023-03-08T04:10:13.916Z,1.97
2023-03-08T04:11:13.762Z,1.97
2023-03-08T04:12:13.730Z,1.97
2023-03-08T04:13:13.701Z,1.99
2023-03-08T04:14:13.719Z,2.08
2023-03-08T04:15:13.715Z,2.02
2023-03-08T04:16:13.903Z,2.07
2023-03-08T04:17:13.664Z,2.08
2023-03-08T04:18:13.662Z,2.11
2023-03-08T04:19:13.626Z,2.10
2023-03-08T04:20:13.628Z,2.07
2023-03-08T04:21:13.645Z,2.14
2023-03-08T04:22:13.572Z,2.08
2023-03-08T04:23:13.564Z,2.15
2023-03-08T04:24:13.563Z,2.10
2023-03-08T04:25:13.549Z,2.13
2023-03-08T04:26:13.547Z,2.11
2023-03-08T04:27:13.522Z,2.20
2023-03-08T04:28:13.528Z,2.10
2023-03-08T04:29:13.487Z,2.13
2023-03-08T04:30:13.466Z,2.11
2023-03-08T04:31:13.525Z,2.10
2023-03-08T04:32:13.729Z,2.13
2023-03-08T04:33:13.446Z,2.13
2023-03-08T04:34:13.390Z,2.13
2023-03-08T04:35:13.436Z,2.13
2023-03-08T04:36:13.373Z,2.17
2023-03-08T04:37:13.353Z,2.17
2023-03-08T04:38:13.367Z,2.13
2023-03-08T04:39:13.326Z,2.18
2023-03-08T04:40:13.329Z,2.11
2023-03-08T04:41:13.359Z,2.15
2023-03-08T04:42:13.325Z,2.11
2023-03-08T04:43:13.268Z,2.13
2023-03-08T04:44:13.277Z,2.10
2023-03-08T04:45:13.262Z,2.11
2023-03-08T04:46:13.244Z,2.15
2023-03-08T04:47:13.218Z,2.11
2023-03-08T04:48:13.209Z,2.11
2023-03-08T04:49:13.222Z,2.20
2023-03-08T04:50:13.246Z,2.20
2023-03-08T04:51:13.176Z,2.08
2023-03-08T04:52:13.173Z,2.15
2023-03-08T04:53:13.117Z,2.10
2023-03-08T04:54:13.128Z,1.97
2023-03-08T04:55:13.132Z,1.99
2023-03-08T04:56:13.093Z,1.92
2023-03-08T04:57:13.117Z,1.95
2023-03-08T04:58:13.094Z,1.81
2023-03-08T04:59:13.050Z,1.80
2023-03-08T05:00:13.041Z,1.87
2023-03-08T05:01:13.019Z,1.95
2023-03-08T05:02:13.087Z,1.94
2023-03-08T05:03:12.972Z,1.88
2023-03-08T05:04:12.957Z,1.85
2023-03-08T05:05:13.136Z,1.84
2023-03-08T05:06:12.952Z,1.71
2023-03-08T05:07:12.949Z,1.73
2023-03-08T05:08:12.920Z,1.78
2023-03-08T05:09:12.914Z,1.80
2023-03-08T05:10:12.882Z,1.74
2023-03-08T05:11:12.877Z,1.77
2023-03-08T05:12:12.883Z,1.78
2023-03-08T05:13:12.851Z,1.78
2023-03-08T05:14:12.852Z,1.88
2023-03-08T05:15:12.838Z,1.87
2023-03-08T05:16:12.907Z,1.84
2023-03-08T05:17:12.807Z,1.80
2023-03-08T05:18:12.789Z,1.80
2023-03-08T05:19:12.753Z,1.77
2023-03-08T05:20:12.749Z,1.78
2023-03-08T05:21:12.729Z,1.74
2023-03-08T05:22:12.730Z,1.71
2023-03-08T05:23:12.680Z,1.78
2023-03-08T05:24:12.666Z,1.78
2023-03-08T05:25:12.685Z,1.73
2023-03-08T05:26:12.685Z,1.71
2023-03-08T05:27:12.672Z,1.67
2023-03-08T05:28:12.616Z,1.62
2023-03-08T05:29:12.617Z,1.55
2023-03-08T05:30:12.620Z,1.53
2023-03-08T05:31:12.662Z,1.58
2023-03-08T05:32:12.658Z,1.58
2023-03-08T05:33:12.542Z,1.58
2023-03-08T05:34:12.588Z,1.49
2023-03-08T05:35:12.562Z,1.56
2023-03-08T05:36:12.490Z,1.66
2023-03-08T05:37:12.484Z,1.59
2023-03-08T05:38:12.449Z,1.56
2023-03-08T05:39:12.443Z,1.56
2023-03-08T05:40:12.428Z,1.48
2023-03-08T05:41:12.456Z,1.52
2023-03-08T05:42:12.432Z,1.52
2023-03-08T05:43:12.375Z,1.55
2023-03-08T05:44:12.400Z,1.48
2023-03-08T05:45:12.447Z,1.50
2023-03-08T05:46:12.432Z,1.50
2023-03-08T05:47:12.343Z,1.60
2023-03-08T05:48:12.321Z,1.49
2023-03-08T05:49:12.317Z,1.50
2023-03-08T05:50:12.321Z,1.48
2023-03-08T05:51:12.271Z,1.41
2023-03-08T05:52:12.270Z,1.48
2023-03-08T05:53:12.226Z,1.48
2023-03-08T05:54:12.232Z,1.48
2023-03-08T05:55:12.222Z,1.40
2023-03-08T05:56:12.196Z,1.40
2023-03-08T05:57:12.182Z,1.42
2023-03-08T05:58:12.162Z,1.48
2023-03-08T05:59:12.137Z,1.35
2023-03-08T06:00:12.185Z,1.38
2023-03-08T06:01:12.172Z,1.42
2023-03-08T06:02:12.181Z,1.53
2023-03-08T06:03:12.171Z,1.48
2023-03-08T06:04:12.141Z,1.45
2023-03-08T06:05:12.174Z,1.44
2023-03-08T06:06:12.333Z,1.49
2023-03-08T06:07:12.054Z,1.49
2023-03-08T06:08:12.031Z,1.56
2023-03-08T06:09:11.985Z,1.59
2023-03-08T06:10:11.987Z,1.53
2023-03-08T06:11:11.996Z,1.49
2023-03-08T06:12:11.962Z,1.49
2023-03-08T06:13:11.968Z,1.53
2023-03-08T06:14:13.144Z,1.50
2023-03-08T06:15:11.929Z,1.59
2023-03-08T06:16:11.913Z,1.52
2023-03-08T06:17:12.077Z,1.56
2023-03-08T06:18:12.104Z,1.49
2023-03-08T06:19:11.848Z,1.44
2023-03-08T06:20:11.878Z,1.50
2023-03-08T06:21:11.824Z,1.52
2023-03-08T06:22:11.796Z,1.48
2023-03-08T06:23:11.777Z,1.48
2023-03-08T06:24:11.792Z,1.53
2023-03-08T06:25:11.743Z,1.50
2023-03-08T06:26:11.786Z,1.56
2023-03-08T06:27:11.776Z,1.42
2023-03-08T06:28:11.733Z,1.45
2023-03-08T06:29:11.706Z,1.55
2023-03-08T06:30:11.712Z,1.59
2023-03-08T06:31:11.785Z,1.56
2023-03-08T06:32:11.750Z,1.59
2023-03-08T06:33:11.664Z,1.53
2023-03-08T06:34:11.680Z,1.55
2023-03-08T06:35:11.626Z,1.56
2023-03-08T06:36:11.653Z,1.56
2023-03-08T06:37:11.608Z,1.59
2023-03-08T06:38:11.579Z,1.60
2023-03-08T06:39:11.565Z,1.56
2023-03-08T06:40:11.589Z,1.60
2023-03-08T06:41:11.548Z,1.66
2023-03-08T06:42:11.574Z,1.66
2023-03-08T06:43:11.530Z,1.63
2023-03-08T06:44:11.526Z,1.76
2023-03-08T06:45:11.506Z,1.60
2023-03-08T06:46:11.553Z,1.59
2023-03-08T06:47:11.460Z,1.67
2023-03-08T06:48:11.445Z,1.73
2023-03-08T06:49:11.448Z,1.74
2023-03-08T06:50:11.515Z,1.78
2023-03-08T06:51:11.393Z,1.78
2023-03-08T06:52:11.390Z,1.85
2023-03-08T06:53:11.370Z,1.76
2023-03-08T06:54:11.340Z,1.76
2023-03-08T06:55:11.368Z,1.74
2023-03-08T06:56:11.367Z,1.78
2023-03-08T06:57:11.347Z,1.74
2023-03-08T06:58:11.297Z,1.73
2023-03-08T06:59:11.304Z,1.68
2023-03-08T07:00:11.289Z,1.88
2023-03-08T07:01:11.327Z,1.87
2023-03-08T07:02:11.254Z,1.85
2023-03-08T07:03:11.248Z,1.81
2023-03-08T07:04:11.312Z,1.87
2023-03-08T07:05:11.179Z,1.89
2023-03-08T07:06:11.226Z,1.92
2023-03-08T07:07:11.187Z,1.94
2023-03-08T07:08:11.161Z,1.99
2023-03-08T07:09:11.172Z,2.00
2023-03-08T07:10:11.129Z,1.99
2023-03-08T07:11:11.134Z,1.94
2023-03-08T07:12:11.077Z,1.97
2023-03-08T07:13:11.075Z,2.06
2023-03-08T07:14:11.052Z,1.97
2023-03-08T07:15:11.046Z,1.99
2023-03-08T07:16:11.132Z,1.97
2023-03-08T07:17:11.005Z,1.94
2023-03-08T07:18:11.023Z,1.87
2023-03-08T07:19:10.968Z,1.92
2023-03-08T07:20:11.162Z,1.85
2023-03-08T07:21:11.004Z,1.87
2023-03-08T07:22:11.009Z,1.81
2023-03-08T07:23:10.941Z,1.80
2023-03-08T07:24:10.897Z,1.81
2023-03-08T07:25:10.900Z,1.92
2023-03-08T07:26:10.904Z,1.80
2023-03-08T07:27:10.894Z,1.89
2023-03-08T07:28:11.042Z,1.91
2023-03-08T07:29:10.858Z,1.92
2023-03-08T07:30:10.847Z,1.95
2023-03-08T07:31:10.842Z,1.92
2023-03-08T07:32:10.931Z,1.95
2023-03-08T07:33:10.862Z,1.81
2023-03-08T07:34:10.776Z,1.81
2023-03-08T07:35:10.759Z,1.87
2023-03-08T07:36:10.757Z,1.81
2023-03-08T07:37:10.699Z,1.81
2023-03-08T07:38:10.733Z,1.78
2023-03-08T07:39:10.871Z,1.80
2023-03-08T07:40:10.671Z,1.91
2023-03-08T07:41:10.647Z,1.95
2023-03-08T07:42:10.659Z,1.92
2023-03-08T07:43:10.618Z,2.04
2023-03-08T07:44:10.667Z,2.00
2023-03-08T07:45:10.625Z,2.04
2023-03-08T07:46:10.591Z,2.07
2023-03-08T07:47:10.757Z,2.06
2023-03-08T07:48:10.558Z,2.11
2023-03-08T07:49:10.572Z,2.10
2023-03-08T07:50:10.533Z,2.17
2023-03-08T07:51:10.510Z,2.20
2023-03-08T07:52:10.555Z,2.08
2023-03-08T07:53:10.462Z,2.02
2023-03-08T07:54:10.531Z,2.07
2023-03-08T07:55:10.457Z,2.07
2023-03-08T07:56:10.459Z,1.94
2023-03-08T07:57:10.452Z,1.99
2023-03-08T07:58:10.401Z,2.02
2023-03-08T07:59:10.386Z,1.91
2023-03-08T08:00:10.388Z,2.00
2023-03-08T08:01:10.351Z,1.91
2023-03-08T08:02:10.342Z,1.81
2023-03-08T08:03:10.342Z,1.84
2023-03-08T08:04:10.398Z,1.85
2023-03-08T08:05:10.550Z,1.77
2023-03-08T08:06:10.312Z,1.95
2023-03-08T08:07:10.296Z,1.92
2023-03-08T08:08:10.275Z,1.99
2023-03-08T08:09:10.233Z,2.02
2023-03-08T08:10:10.256Z,2.13
2023-03-08T08:11:10.218Z,2.00
2023-03-08T08:12:10.194Z,1.94
2023-03-08T08:13:10.200Z,1.94
2023-03-08T08:14:10.192Z,1.84
2023-03-08T08:15:10.146Z,1.81
2023-03-08T08:16:10.224Z,1.89
2023-03-08T08:17:10.130Z,1.91
2023-03-08T08:18:10.110Z,1.80
2023-03-08T08:19:10.324Z,1.95
2023-03-08T08:20:10.111Z,1.81
2023-03-08T08:21:10.071Z,1.81
2023-03-08T08:22:10.106Z,1.78
2023-03-08T08:23:10.041Z,1.70
2023-03-08T08:24:10.025Z,1.71
2023-03-08T08:25:10.021Z,1.80
2023-03-08T08:26:10.037Z,1.66
2023-03-08T08:27:09.985Z,1.77
2023-03-08T08:28:10.001Z,1.87
2023-03-08T08:29:10.015Z,1.81
2023-03-08T08:30:09.940Z,1.84
2023-03-08T08:31:09.981Z,1.80
2023-03-08T08:32:09.936Z,1.92
2023-03-08T08:33:09.888Z,1.92
2023-03-08T08:34:09.879Z,1.99
2023-03-08T08:35:09.872Z,1.99
2023-03-08T08:36:09.883Z,2.02
2023-03-08T08:37:09.842Z,1.95
2023-03-08T08:38:09.820Z,1.92
2023-03-08T08:39:09.821Z,1.99
2023-03-08T08:40:09.801Z,2.08
2023-03-08T08:41:09.766Z,2.20
2023-03-08T08:42:09.790Z,2.13
2023-03-08T08:43:09.771Z,2.07
2023-03-08T08:44:09.729Z,2.07
2023-03-08T08:45:09.745Z,2.02
2023-03-08T08:46:09.903Z,2.15
2023-03-08T08:47:09.729Z,2.06
2023-03-08T08:48:09.706Z,2.06
2023-03-08T08:49:09.868Z,2.15
2023-03-08T08:50:09.646Z,1.97
2023-03-08T08:51:09.657Z,2.02
2023-03-08T08:52:09.612Z,1.95
2023-03-08T08:53:09.852Z,1.89
2023-03-08T08:54:09.632Z,1.84
2023-03-08T08:55:09.587Z,1.84
2023-03-08T08:56:20.235Z,1.81
2023-03-08T08:57:09.543Z,1.77
2023-03-08T08:58:09.563Z,1.84
2023-03-08T08:59:09.506Z,1.88
2023-03-08T09:00:09.493Z,1.81
2023-03-08T09:01:09.508Z,1.73
2023-03-08T09:02:09.459Z,1.78
2023-03-08T09:03:09.455Z,1.73
2023-03-08T09:04:09.515Z,1.70
2023-03-08T09:05:09.471Z,1.68
2023-03-08T09:06:09.402Z,1.67
2023-03-08T09:07:09.598Z,1.66
2023-03-08T09:08:09.381Z,1.66
2023-03-08T09:09:09.768Z,1.70
2023-03-08T09:10:09.345Z,1.71
2023-03-08T09:11:09.318Z,1.66
2023-03-08T09:12:09.319Z,1.71
2023-03-08T09:13:09.423Z,1.66
2023-03-08T09:14:09.323Z,1.67
2023-03-08T09:15:09.281Z,1.62
2023-03-08T09:16:09.321Z,1.62
2023-03-08T09:17:09.239Z,1.59
2023-03-08T09:18:09.427Z,1.56
2023-03-08T09:19:09.212Z,1.53
2023-03-08T09:20:09.190Z,1.55
2023-03-08T09:21:09.380Z,1.59
2023-03-08T09:22:09.167Z,1.67
2023-03-08T09:23:09.242Z,1.70
2023-03-08T09:24:09.136Z,1.68
2023-03-08T09:25:09.125Z,1.63
2023-03-08T09:26:09.121Z,1.58
2023-03-08T09:27:09.132Z,1.56
2023-03-08T09:28:09.096Z,1.59
2023-03-08T09:29:09.083Z,1.52
2023-03-08T09:30:09.136Z,1.60
2023-03-08T09:31:09.041Z,1.60
2023-03-08T09:32:09.175Z,1.60
2023-03-08T09:33:09.029Z,1.55
2023-03-08T09:34:09.673Z,1.55
2023-03-08T09:35:08.965Z,1.60
2023-03-08T09:36:08.975Z,1.62
2023-03-08T09:37:09.011Z,1.68
2023-03-08T09:38:09.021Z,1.77
2023-03-08T09:39:09.076Z,1.87
2023-03-08T09:40:09.125Z,1.84
2023-03-08T09:41:09.095Z,1.84
2023-03-08T09:42:08.929Z,1.91
2023-03-08T09:43:09.100Z,1.89
2023-03-08T09:44:08.848Z,2.06
2023-03-08T09:45:08.870Z,1.99
2023-03-08T09:46:08.912Z,2.06
2023-03-08T09:47:08.832Z,1.97
2023-03-08T09:48:08.935Z,2.00
2023-03-08T09:49:08.770Z,2.02
2023-03-08T09:50:08.787Z,2.02
2023-03-08T09:51:08.738Z,1.89
2023-03-08T09:52:08.758Z,1.78
2023-03-08T09:53:08.734Z,1.87
2023-03-08T09:54:08.748Z,1.85
2023-03-08T09:55:08.732Z,1.85
2023-03-08T09:56:08.673Z,1.87
2023-03-08T09:57:08.695Z,1.87
2023-03-08T09:58:08.655Z,1.92
2023-03-08T09:59:08.649Z,1.81
2023-03-08T10:00:08.631Z,1.94
2023-03-08T10:01:08.637Z,1.95
2023-03-08T10:02:08.616Z,1.94
2023-03-08T10:03:08.589Z,1.94
2023-03-08T10:04:08.610Z,1.80
2023-03-08T10:05:13.823Z,1.87
2023-03-08T10:06:08.529Z,1.84
2023-03-08T10:07:08.525Z,1.84
2023-03-08T10:08:08.475Z,1.85
2023-03-08T10:09:08.478Z,1.85
2023-03-08T10:10:08.497Z,1.81
2023-03-08T10:11:08.438Z,1.97
2023-03-08T10:12:13.242Z,1.89
2023-03-08T10:13:08.451Z,2.00
2023-03-08T10:14:08.393Z,2.02
2023-03-08T10:15:08.379Z,2.04
2023-03-08T10:16:08.357Z,2.00
2023-03-08T10:17:08.344Z,2.10
2023-03-08T10:18:08.444Z,2.02
2023-03-08T10:19:08.320Z,1.99
2023-03-08T10:20:08.308Z,2.18
2023-03-08T10:21:08.287Z,2.07
2023-03-08T10:22:08.306Z,1.95
2023-03-08T10:23:08.479Z,2.13
2023-03-08T10:24:08.244Z,2.13
2023-03-08T10:25:08.218Z,2.02
2023-03-08T10:26:08.214Z,2.02
2023-03-08T10:27:08.208Z,2.06
2023-03-08T10:28:08.224Z,2.08
2023-03-08T10:29:08.206Z,2.13
2023-03-08T10:30:08.235Z,2.17
2023-03-08T10:31:08.233Z,2.13
2023-03-08T10:32:08.150Z,2.11
2023-03-08T10:33:08.122Z,2.13
2023-03-08T10:34:08.139Z,2.08
2023-03-08T10:35:08.119Z,2.20
2023-03-08T10:36:08.135Z,2.14
2023-03-08T10:37:08.077Z,2.02
2023-03-08T10:38:08.088Z,2.08
2023-03-08T10:39:08.053Z,2.06
2023-03-08T10:40:08.020Z,1.99
2023-03-08T10:41:08.003Z,2.06
2023-03-08T10:42:08.009Z,2.11
2023-03-08T10:43:07.990Z,2.13
2023-03-08T10:44:07.961Z,2.14
2023-03-08T10:45:07.966Z,2.18
2023-03-08T10:46:07.968Z,2.17
2023-03-08T10:47:07.905Z,2.14
2023-03-08T10:48:07.906Z,2.15
2023-03-08T10:49:07.895Z,2.14
2023-03-08T10:50:07.886Z,2.18
2023-03-08T10:51:07.895Z,2.17
2023-03-08T10:52:07.877Z,2.13
2023-03-08T10:53:07.830Z,2.17
2023-03-08T10:54:07.820Z,2.18
2023-03-08T10:55:07.808Z,2.31
2023-03-08T10:56:07.859Z,2.20
2023-03-08T10:57:07.760Z,2.24
2023-03-08T10:58:07.743Z,2.32
2023-03-08T10:59:07.780Z,2.28
2023-03-08T11:00:07.753Z,2.29
2023-03-08T11:01:07.711Z,2.33
2023-03-08T11:02:07.692Z,2.32
2023-03-08T11:03:07.704Z,2.32
2023-03-08T11:04:07.659Z,2.36
2023-03-08T11:05:07.655Z,2.44
2023-03-08T11:06:07.673Z,2.39
2023-03-08T11:07:07.640Z,2.49
2023-03-08T11:08:07.604Z,2.44
2023-03-08T11:09:07.653Z,2.47
2023-03-08T11:10:07.588Z,2.44
2023-03-08T11:11:07.664Z,2.49
2023-03-08T11:12:07.588Z,2.49
2023-03-08T11:13:07.568Z,2.60
2023-03-08T11:14:07.533Z,2.51
2023-03-08T11:15:07.550Z,2.56
2023-03-08T11:16:07.556Z,2.47
2023-03-08T11:17:07.549Z,2.64
2023-03-08T11:18:07.512Z,2.56
2023-03-08T11:19:07.579Z,2.64
2023-03-08T11:20:07.442Z,2.54
2023-03-08T11:21:07.435Z,2.62
2023-03-08T11:22:07.656Z,2.61
2023-03-08T11:23:07.384Z,2.57
2023-03-08T11:24:07.468Z,2.65
2023-03-08T11:25:07.397Z,2.60
2023-03-08T11:26:07.361Z,2.64
2023-03-08T11:27:07.391Z,2.68
2023-03-08T11:28:07.387Z,2.64
2023-03-08T11:29:07.372Z,2.74
2023-03-08T11:30:07.327Z,2.69
2023-03-08T11:31:07.324Z,2.68
2023-03-08T11:32:07.329Z,2.67
2023-03-08T11:33:07.668Z,2.75
2023-03-08T11:34:07.317Z,2.67
2023-03-08T11:35:07.222Z,2.71
2023-03-08T11:36:07.250Z,2.69
2023-03-08T11:37:07.212Z,2.72
2023-03-08T11:38:07.246Z,2.80
2023-03-08T11:39:07.163Z,2.72
2023-03-08T11:40:07.154Z,2.75
2023-03-08T11:41:07.355Z,2.80
2023-03-08T11:42:07.117Z,2.79
2023-03-08T11:43:07.098Z,2.83
2023-03-08T11:44:07.336Z,2.80
2023-03-08T11:45:07.088Z,2.80
2023-03-08T11:46:07.118Z,2.77
2023-03-08T11:47:07.050Z,2.79
2023-03-08T11:48:07.009Z,2.79
2023-03-08T11:49:07.277Z,2.82
2023-03-08T11:50:07.033Z,2.77
2023-03-08T11:51:07.029Z,2.77
2023-03-08T11:52:06.991Z,2.74
2023-03-08T11:53:06.993Z,2.75
2023-03-08T11:54:07.078Z,2.79
2023-03-08T11:55:06.936Z,2.68
2023-03-08T11:56:06.940Z,2.68
2023-03-08T11:57:07.101Z,2.67
2023-03-08T11:58:06.888Z,2.64
2023-03-08T11:59:06.852Z,2.65
2023-03-08T12:00:06.856Z,2.72
2023-03-08T12:01:06.824Z,2.69
2023-03-08T12:02:06.845Z,2.72
2023-03-08T12:03:06.862Z,2.80
2023-03-08T12:04:06.962Z,2.82
2023-03-08T12:05:06.828Z,2.74
2023-03-08T12:06:11.726Z,2.82
2023-03-08T12:07:06.942Z,2.77
2023-03-08T12:08:06.794Z,2.74
2023-03-08T12:09:06.757Z,2.80
2023-03-08T12:10:06.808Z,2.79
2023-03-08T12:11:06.690Z,2.83
2023-03-08T12:12:06.690Z,2.82
2023-03-08T12:13:06.668Z,2.82
2023-03-08T12:14:06.644Z,2.89
2023-03-08T12:15:06.737Z,2.82
2023-03-08T12:16:06.660Z,2.82
2023-03-08T12:17:06.786Z,2.87
2023-03-08T12:18:06.608Z,2.92
2023-03-08T12:19:06.572Z,2.90
2023-03-08T12:20:06.566Z,2.87
2023-03-08T12:21:06.551Z,2.74
2023-03-08T12:22:06.511Z,2.71
2023-03-08T12:23:06.616Z,2.75
2023-03-08T12:24:06.510Z,2.83
2023-03-08T12:25:06.495Z,2.79
2023-03-08T12:26:06.504Z,2.72
2023-03-08T12:27:06.503Z,2.77
2023-03-08T12:28:06.687Z,2.68
2023-03-08T12:29:06.447Z,2.75
2023-03-08T12:30:06.420Z,2.75
2023-03-08T12:31:12.893Z,2.69
2023-03-08T12:32:06.529Z,2.74
2023-03-08T12:33:06.649Z,2.82
2023-03-08T12:34:06.357Z,2.79
2023-03-08T12:35:06.383Z,2.75
2023-03-08T12:36:06.432Z,2.83
2023-03-08T12:37:06.361Z,2.80
2023-03-08T12:38:06.306Z,2.80
2023-03-08T12:39:06.354Z,2.75
2023-03-08T12:40:06.280Z,2.74
2023-03-08T12:41:06.260Z,2.80
2023-03-08T12:42:06.252Z,2.83
2023-03-08T12:43:06.248Z,2.89
2023-03-08T12:44:06.217Z,2.77
2023-03-08T12:45:06.193Z,2.93
2023-03-08T12:46:06.242Z,2.89
2023-03-08T12:47:06.156Z,2.85
2023-03-08T12:48:06.148Z,2.80
2023-03-08T12:49:06.155Z,2.86
2023-03-08T12:50:06.323Z,2.87
2023-03-08T12:51:06.125Z,2.89
2023-03-08T12:52:06.094Z,2.95
2023-03-08T12:53:06.066Z,2.89
2023-03-08T12:54:06.075Z,2.97
2023-03-08T12:55:06.065Z,2.97
2023-03-08T12:56:06.081Z,2.95
2023-03-08T12:57:06.013Z,2.90
2023-03-08T12:58:06.028Z,2.98
2023-03-08T12:59:05.993Z,2.95
2023-03-08T13:00:05.988Z,3.00
2023-03-08T13:01:06.016Z,2.98
2023-03-08T13:02:05.962Z,3.00
2023-03-08T13:03:05.944Z,2.95
2023-03-08T13:04:06.018Z,3.05
2023-03-08T13:05:05.927Z,2.97
2023-03-08T13:06:05.884Z,3.03
2023-03-08T13:07:05.870Z,3.03
2023-03-08T13:08:06.075Z,3.03
2023-03-08T13:09:05.862Z,3.08
2023-03-08T13:10:06.028Z,3.04
2023-03-08T13:11:05.841Z,3.16
2023-03-08T13:12:05.809Z,3.14
2023-03-08T13:13:05.834Z,3.05
2023-03-08T13:14:05.841Z,3.05
2023-03-08T13:15:05.759Z,3.05
2023-03-08T13:16:05.752Z,3.18
2023-03-08T13:17:05.736Z,3.21
2023-03-08T13:18:05.746Z,3.13